createdAt,value
2022-11-13T00:02:44.750Z,21.80
2022-11-13T00:06:07.629Z,14.95
2022-11-13T00:09:31.839Z,18.33
2022-11-13T00:12:55.402Z,19.88
2022-11-13T00:16:19.926Z,20.27
2022-11-13T00:19:42.284Z,15.25
2022-11-13T00:23:04.439Z,17.25
2022-11-13T00:26:31.436Z,16.33
2022-11-13T00:29:53.809Z,15.68
2022-11-13T00:33:26.418Z,15.15
2022-11-13T00:36:58.392Z,19.05
2022-11-13T00:40:20.816Z,17.58
2022-11-13T00:43:45.273Z,14.57
2022-11-13T00:47:07.988Z,20.90
2022-11-13T00:50:31.054Z,15.57
2022-11-13T00:53:53.720Z,19.38
2022-11-13T00:57:16.047Z,16.27
2022-11-13T01:00:40.063Z,14.25
2022-11-13T01:04:02.574Z,16.67
2022-11-13T01:07:24.984Z,13.52
2022-11-13T01:10:53.355Z,15.27
2022-11-13T01:14:16.156Z,18.13
2022-11-13T01:17:40.495Z,18.35
2022-11-13T01:21:07.873Z,15.82
2022-11-13T01:24:29.814Z,17.27
2022-11-13T01:27:51.877Z,17.25
2022-11-13T01:31:16.081Z,18.58
2022-11-13T01:38:02.798Z,15.13
2022-11-13T01:41:27.698Z,14.25
2022-11-13T01:44:52.214Z,15.60
2022-11-13T01:48:14.738Z,12.88
2022-11-13T01:51:42.608Z,16.98
2022-11-13T01:55:10.394Z,15.77
2022-11-13T01:58:32.814Z,15.00
2022-11-13T02:01:56.450Z,16.30
2022-11-13T02:05:19.177Z,17.10
2022-11-13T02:08:44.949Z,15.38
2022-11-13T02:12:09.984Z,15.13
2022-11-13T02:15:34.814Z,14.57
2022-11-13T02:18:57.545Z,15.73
2022-11-13T02:22:25.602Z,15.27
2022-11-13T02:25:52.722Z,13.68
2022-11-13T02:29:15.248Z,15.95
2022-11-13T02:32:37.532Z,18.38
2022-11-13T02:36:00.300Z,18.92
2022-11-13T02:39:22.693Z,18.65
2022-11-13T02:42:47.035Z,14.93
2022-11-13T02:46:09.686Z,16.88
2022-11-13T02:49:31.882Z,14.93
2022-11-13T02:52:54.257Z,15.90
2022-11-13T02:56:16.742Z,17.95
2022-11-13T02:59:40.712Z,16.92
2022-11-13T03:03:02.857Z,21.27
2022-11-13T03:06:25.045Z,16.98
2022-11-13T03:09:47.904Z,17.92
2022-11-13T03:13:10.416Z,16.17
2022-11-13T03:16:36.082Z,17.10
2022-11-13T03:19:58.973Z,16.42
2022-11-13T03:23:21.123Z,14.15
2022-11-13T03:26:43.226Z,15.10
2022-11-13T03:30:07.007Z,14.95
2022-11-13T03:33:31.415Z,17.53
2022-11-13T03:40:15.525Z,14.40
2022-11-13T03:43:38.507Z,20.58
2022-11-13T03:47:01.026Z,16.58
2022-11-13T03:50:25.509Z,22.35
2022-11-13T03:53:47.833Z,14.68
2022-11-13T03:57:09.990Z,15.95
2022-11-13T04:00:32.403Z,13.95
2022-11-13T04:03:54.470Z,13.32
2022-11-13T04:07:18.782Z,14.60
2022-11-13T04:10:41.570Z,14.20
2022-11-13T04:14:03.853Z,15.30
2022-11-13T04:17:25.890Z,16.23
2022-11-13T04:20:48.238Z,13.02
2022-11-13T04:24:12.661Z,13.38
2022-11-13T04:27:34.929Z,20.58
2022-11-13T04:30:58.174Z,13.40
2022-11-13T04:34:20.209Z,15.30
2022-11-13T04:37:42.353Z,15.10
2022-11-13T04:41:19.766Z,14.00
2022-11-13T04:44:41.977Z,14.73
2022-11-13T04:48:04.193Z,14.90
2022-11-13T04:51:26.428Z,12.90
2022-11-13T04:54:49.116Z,17.27
2022-11-13T04:58:13.496Z,13.40
2022-11-13T05:01:36.788Z,11.82
2022-11-13T05:05:04.701Z,18.67
2022-11-13T05:08:27.937Z,12.40
2022-11-13T05:11:50.456Z,15.30
2022-11-13T05:15:14.901Z,14.98
2022-11-13T05:18:38.951Z,11.20
2022-11-13T05:22:01.553Z,12.43
2022-11-13T05:25:23.537Z,15.02
2022-11-13T05:28:45.987Z,12.65
2022-11-13T05:32:09.950Z,13.82
2022-11-13T05:35:32.118Z,18.20
2022-11-13T05:38:54.361Z,12.88
2022-11-13T05:42:16.604Z,13.30
2022-11-13T05:45:39.235Z,13.52
2022-11-13T05:49:04.126Z,14.05
2022-11-13T05:52:26.557Z,14.57
2022-11-13T05:55:48.686Z,17.35
2022-11-13T05:59:10.885Z,16.65
2022-11-13T06:02:33.102Z,16.40
2022-11-13T06:05:57.301Z,21.60
2022-11-13T06:09:19.638Z,16.95
2022-11-13T06:12:41.683Z,14.68
2022-11-13T06:16:06.098Z,20.70
2022-11-13T06:19:28.806Z,15.68
2022-11-13T06:22:53.121Z,17.77
2022-11-13T06:26:18.692Z,20.05
2022-11-13T06:29:40.902Z,16.42
2022-11-13T06:33:03.256Z,17.77
2022-11-13T06:36:27.698Z,19.75
2022-11-13T06:43:13.958Z,16.88
2022-11-13T06:46:36.408Z,15.52
2022-11-13T06:49:59.023Z,17.17
2022-11-13T06:53:21.215Z,15.02
2022-11-13T06:56:45.666Z,19.67
2022-11-13T07:00:09.772Z,16.25
2022-11-13T07:03:32.323Z,17.60
2022-11-13T07:06:54.784Z,18.58
2022-11-13T07:10:17.426Z,19.95
2022-11-13T07:13:42.390Z,15.43
2022-11-13T07:17:09.601Z,20.58
2022-11-13T07:20:32.566Z,19.48
2022-11-13T07:23:55.302Z,15.10
2022-11-13T07:27:17.313Z,16.00
2022-11-13T07:30:41.483Z,15.38
2022-11-13T07:34:03.534Z,19.92
2022-11-13T07:37:26.104Z,18.90
2022-11-13T07:40:48.582Z,14.95
2022-11-13T07:44:12.929Z,17.00
2022-11-13T07:47:40.217Z,14.50
2022-11-13T07:51:03.632Z,17.02
2022-11-13T07:54:25.725Z,13.63
2022-11-13T07:57:48.163Z,14.75
2022-11-13T08:01:11.613Z,15.57
2022-11-13T08:04:35.860Z,14.73
2022-11-13T08:07:58.150Z,15.55
2022-11-13T08:11:20.341Z,14.38
2022-11-13T08:14:42.956Z,14.02
2022-11-13T08:18:06.638Z,16.75
2022-11-13T08:21:31.203Z,17.80
2022-11-13T08:28:17.052Z,15.48
2022-11-13T08:31:39.134Z,16.42
2022-11-13T08:35:01.113Z,18.65
2022-11-13T08:38:26.107Z,17.00
2022-11-13T08:41:48.661Z,15.50
2022-11-13T08:45:12.097Z,21.00
2022-11-13T08:48:34.204Z,17.08
2022-11-13T08:51:56.086Z,15.70
2022-11-13T08:55:20.218Z,16.95
2022-11-13T08:58:42.460Z,21.25
2022-11-13T09:02:04.771Z,17.95
2022-11-13T09:05:27.767Z,14.10
2022-11-13T09:08:49.731Z,17.67
2022-11-13T09:12:13.995Z,18.58
2022-11-13T09:15:36.176Z,13.18
2022-11-13T09:18:58.146Z,12.73
2022-11-13T09:22:20.410Z,13.10
2022-11-13T09:25:42.677Z,14.65
2022-11-13T09:29:06.972Z,16.13
2022-11-13T09:32:29.384Z,11.55
2022-11-13T09:35:52.128Z,14.15
2022-11-13T09:39:14.589Z,16.63
2022-11-13T09:42:41.478Z,13.75
2022-11-13T09:46:12.998Z,14.73
2022-11-13T09:49:43.190Z,9.98
2022-11-13T09:53:06.735Z,11.55
2022-11-13T09:56:32.525Z,13.10
2022-11-13T09:59:58.950Z,15.63
2022-11-13T10:07:30.481Z,12.50
2022-11-13T10:11:01.192Z,12.38
2022-11-13T10:14:28.546Z,10.82
2022-11-13T10:17:56.853Z,10.20
2022-11-13T10:21:31.063Z,15.77
2022-11-13T10:24:59.344Z,12.43
2022-11-13T10:32:18.831Z,8.03
2022-11-13T10:35:49.500Z,10.25
2022-11-13T10:39:13.671Z,9.43
2022-11-13T10:42:40.991Z,12.23
2022-11-13T10:46:05.725Z,11.18
2022-11-13T10:49:30.479Z,9.98
2022-11-13T10:52:55.259Z,9.40
2022-11-13T10:56:28.969Z,8.27
2022-11-13T10:59:51.178Z,8.77
2022-11-13T11:03:18.896Z,8.23
2022-11-13T11:07:17.720Z,11.23
2022-11-13T11:10:33.200Z,8.32
2022-11-13T11:14:06.462Z,8.50
2022-11-13T11:17:38.194Z,7.40
2022-11-13T11:21:02.866Z,11.25
2022-11-13T11:24:27.909Z,9.82
2022-11-13T11:27:55.632Z,11.73
2022-11-13T11:31:26.238Z,10.30
2022-11-13T11:34:58.947Z,11.00
2022-11-13T11:38:27.291Z,8.15
2022-11-13T11:41:56.477Z,8.13
2022-11-13T11:45:29.409Z,6.55
2022-11-13T11:49:01.325Z,6.97
2022-11-13T11:52:40.871Z,8.43
2022-11-13T11:56:20.313Z,8.38
2022-11-13T11:59:57.947Z,9.25
2022-11-13T12:03:41.648Z,9.35
2022-11-13T12:07:19.367Z,8.70
2022-11-13T12:10:47.913Z,8.73
2022-11-13T12:14:19.869Z,9.32
2022-11-13T12:17:53.338Z,11.70
2022-11-13T12:21:24.100Z,7.45
2022-11-13T12:25:10.208Z,8.88
2022-11-13T12:28:41.267Z,9.95
2022-11-13T12:32:18.353Z,9.35
2022-11-13T12:35:41.177Z,8.85
2022-11-13T12:39:08.562Z,9.07
2022-11-13T12:42:37.412Z,8.98
2022-11-13T12:46:06.600Z,11.00
2022-11-13T12:49:34.253Z,7.75
2022-11-13T12:53:06.517Z,8.70
2022-11-13T12:56:33.753Z,10.63
2022-11-13T13:00:00.076Z,8.73
2022-11-13T13:03:38.889Z,10.80
2022-11-13T13:07:13.632Z,8.63
2022-11-13T13:10:45.375Z,9.27
2022-11-13T13:14:27.382Z,8.90
2022-11-13T13:18:02.542Z,7.30
2022-11-13T13:21:25.081Z,7.28
2022-11-13T13:24:47.019Z,6.82
2022-11-13T13:28:20.756Z,6.68
2022-11-13T13:31:50.969Z,7.88
2022-11-13T13:35:19.286Z,6.55
2022-11-13T13:38:52.222Z,6.63
2022-11-13T13:42:27.562Z,6.35
2022-11-13T13:46:09.396Z,5.90
2022-11-13T13:49:31.465Z,4.72
2022-11-13T13:52:58.575Z,5.53
2022-11-13T13:56:22.400Z,5.47
2022-11-13T13:59:46.083Z,7.23
2022-11-13T14:03:21.050Z,4.97
2022-11-13T14:06:50.765Z,8.70
2022-11-13T14:10:20.304Z,5.05
2022-11-13T14:13:43.419Z,6.38
2022-11-13T14:17:06.337Z,6.60
2022-11-13T14:20:29.006Z,7.70
2022-11-13T14:23:52.866Z,4.57
2022-11-13T14:27:24.433Z,9.82
2022-11-13T14:30:54.765Z,5.30
2022-11-13T14:34:25.086Z,7.28
2022-11-13T14:37:48.121Z,5.78
2022-11-13T14:41:21.350Z,5.43
2022-11-13T14:44:45.317Z,4.78
2022-11-13T14:48:21.330Z,6.45
2022-11-13T14:51:43.824Z,4.38
2022-11-13T14:55:15.156Z,4.07
2022-11-13T14:58:43.040Z,6.60
2022-11-13T15:02:08.681Z,4.68
2022-11-13T15:05:31.451Z,4.05
2022-11-13T15:08:58.812Z,3.97
2022-11-13T15:12:21.046Z,6.90
2022-11-13T15:15:43.299Z,5.30
2022-11-13T15:19:12.807Z,4.70
2022-11-13T15:22:37.654Z,4.50
2022-11-13T15:26:00.044Z,5.13
2022-11-13T15:29:22.448Z,5.93
2022-11-13T15:32:48.613Z,3.60
2022-11-13T15:36:14.225Z,7.85
2022-11-13T15:39:36.920Z,7.63
2022-11-13T15:43:00.684Z,4.38
2022-11-13T15:46:25.806Z,8.20
2022-11-13T15:50:12.519Z,19.83
2022-11-13T15:56:57.219Z,7.43
2022-11-13T16:00:24.273Z,6.03
2022-11-13T16:03:46.800Z,9.15
2022-11-13T16:07:16.090Z,9.05
2022-11-13T16:10:40.750Z,6.85
2022-11-13T16:14:03.120Z,7.88
2022-11-13T16:17:25.330Z,10.90
2022-11-13T16:20:47.522Z,7.45
2022-11-13T16:24:13.422Z,11.07
2022-11-13T16:27:37.797Z,9.35
2022-11-13T16:30:59.806Z,9.85
2022-11-13T16:34:22.798Z,11.18
2022-11-13T16:37:45.088Z,14.00
2022-11-13T16:41:07.558Z,11.98
2022-11-13T16:44:31.584Z,9.43
2022-11-13T16:47:53.745Z,12.65
2022-11-13T16:51:16.134Z,15.52
2022-11-13T16:54:38.535Z,11.73
2022-11-13T16:58:00.657Z,13.90
2022-11-13T17:01:25.428Z,14.75
2022-11-13T17:04:48.047Z,10.50
2022-11-13T17:08:14.254Z,11.35
2022-11-13T17:11:36.798Z,15.30
2022-11-13T17:14:59.234Z,10.48
2022-11-13T17:18:23.755Z,12.82
2022-11-13T17:25:08.911Z,13.18
2022-11-13T17:28:31.413Z,13.70
2022-11-13T17:31:53.455Z,14.18
2022-11-13T17:35:17.904Z,15.60
2022-11-13T17:42:02.753Z,11.43
2022-11-13T17:45:24.857Z,18.20
2022-11-13T17:48:47.524Z,13.80
2022-11-13T17:52:11.927Z,15.30
2022-11-13T17:55:34.260Z,12.38
2022-11-13T17:58:56.862Z,14.73
2022-11-13T18:02:19.049Z,15.07
2022-11-13T18:05:41.491Z,13.73
2022-11-13T18:09:05.791Z,17.55
2022-11-13T18:15:50.675Z,17.05
2022-11-13T18:19:12.679Z,16.52
2022-11-13T18:22:34.788Z,12.63
2022-11-13T18:25:59.139Z,17.90
2022-11-13T18:29:21.615Z,15.82
2022-11-13T18:32:44.380Z,15.85
2022-11-13T18:36:08.163Z,15.85
2022-11-13T18:39:30.997Z,20.13
2022-11-13T18:42:55.020Z,17.25
2022-11-13T18:46:18.859Z,15.52
2022-11-13T18:49:41.517Z,21.13
2022-11-13T18:53:03.834Z,17.50
2022-11-13T18:56:27.774Z,22.50
2022-11-13T18:59:52.039Z,21.33
2022-11-13T19:03:14.237Z,21.70
2022-11-13T19:06:37.739Z,17.15
2022-11-13T19:10:00.298Z,13.87
2022-11-13T19:13:22.619Z,21.65
2022-11-13T19:16:51.919Z,19.73
2022-11-13T19:20:17.202Z,22.13
2022-11-13T19:23:39.863Z,21.00
2022-11-13T19:27:03.776Z,22.77
2022-11-13T19:30:26.669Z,22.02
2022-11-13T19:33:55.687Z,26.10
2022-11-13T19:37:19.401Z,25.98
2022-11-13T19:40:44.949Z,29.30
2022-11-13T19:44:08.829Z,25.13
2022-11-13T19:47:31.813Z,24.10
2022-11-13T19:50:55.752Z,28.63
2022-11-13T19:54:18.021Z,27.38
2022-11-13T19:57:46.189Z,26.50
2022-11-13T20:01:12.476Z,33.42
2022-11-13T20:04:35.014Z,36.08
2022-11-13T20:07:59.278Z,30.95
2022-11-13T20:14:43.399Z,40.65
2022-11-13T20:18:06.113Z,45.53
2022-11-13T20:21:29.826Z,42.53
2022-11-13T20:24:54.187Z,40.80
2022-11-13T20:28:16.345Z,45.63
2022-11-13T20:31:38.938Z,48.92
2022-11-13T20:35:01.971Z,42.78
2022-11-13T20:38:24.397Z,48.17
2022-11-13T20:41:48.659Z,50.95
2022-11-13T20:45:11.643Z,47.88
2022-11-13T20:48:34.190Z,48.15
2022-11-13T20:51:57.400Z,49.78
2022-11-13T20:55:19.838Z,45.70
2022-11-13T20:58:44.144Z,50.10
2022-11-13T21:02:06.271Z,51.53
2022-11-13T21:05:29.242Z,49.45
2022-11-13T21:08:52.954Z,54.35
2022-11-13T21:12:15.163Z,53.78
2022-11-13T21:15:40.771Z,52.95
2022-11-13T21:19:03.200Z,53.65
2022-11-13T21:22:25.294Z,48.97
2022-11-13T21:25:47.665Z,54.67
2022-11-13T21:29:09.720Z,54.58
2022-11-13T21:32:34.091Z,59.28
2022-11-13T21:35:56.459Z,54.47
2022-11-13T21:39:18.996Z,59.47
2022-11-13T21:42:41.301Z,58.53
2022-11-13T21:46:05.508Z,62.22
2022-11-13T21:49:29.571Z,60.55
2022-11-13T21:52:51.754Z,59.50
2022-11-13T21:56:15.869Z,67.43
2022-11-13T21:59:38.471Z,68.70
2022-11-13T22:03:00.871Z,66.82
2022-11-13T22:06:27.351Z,59.45
2022-11-13T22:09:50.074Z,75.53
2022-11-13T22:13:12.175Z,70.32
2022-11-13T22:16:36.542Z,60.88
2022-11-13T22:19:58.833Z,62.97
2022-11-13T22:23:23.525Z,62.15
2022-11-13T22:26:47.231Z,68.53
2022-11-13T22:30:10.920Z,45.78
2022-11-13T22:33:35.284Z,71.03
2022-11-13T22:36:57.589Z,75.22
2022-11-13T22:40:22.025Z,64.88
2022-11-13T22:43:45.337Z,65.72
2022-11-13T22:47:07.757Z,72.43
2022-11-13T22:50:30.345Z,67.70
2022-11-13T22:53:54.304Z,67.15
2022-11-13T22:57:18.875Z,69.82
2022-11-13T23:04:05.137Z,68.22
2022-11-13T23:07:27.499Z,68.85
2022-11-13T23:10:53.810Z,64.07
2022-11-13T23:14:17.810Z,65.00
2022-11-13T23:17:40.219Z,68.10
2022-11-13T23:21:02.894Z,68.82
2022-11-13T23:24:25.434Z,59.83
2022-11-13T23:27:47.937Z,67.13
2022-11-13T23:31:12.425Z,61.70
2022-11-13T23:34:57.997Z,67.55
2022-11-13T23:38:16.941Z,66.93
2022-11-13T23:41:39.501Z,67.65
2022-11-13T23:45:01.743Z,59.65
2022-11-13T23:48:26.622Z,64.32
2022-11-13T23:51:49.382Z,65.95
2022-11-13T23:55:12.259Z,73.50
2022-11-13T23:58:34.749Z,55.50
